createdAt,value
2022-11-09T00:00:45.982Z,3.46
2022-11-09T00:03:13.126Z,3.41
2022-11-09T00:05:39.885Z,3.19
2022-11-09T00:08:07.830Z,3.26
2022-11-09T00:10:34.720Z,3.39
2022-11-09T00:13:02.569Z,3.48
2022-11-09T00:15:29.219Z,3.55
2022-11-09T00:17:55.628Z,3.93
2022-11-09T00:20:22.044Z,3.66
2022-11-09T00:22:49.604Z,3.67
2022-11-09T00:25:21.928Z,3.58
2022-11-09T00:27:48.330Z,3.76
2022-11-09T00:30:15.391Z,3.73
2022-11-09T00:32:41.842Z,3.57
2022-11-09T00:35:08.714Z,3.24
2022-11-09T00:37:35.475Z,3.34
2022-11-09T00:40:01.967Z,3.23
2022-11-09T00:42:28.378Z,3.28
2022-11-09T00:44:54.919Z,3.00
2022-11-09T00:47:21.354Z,2.75
2022-11-09T00:49:51.891Z,2.87
2022-11-09T00:52:18.261Z,2.79
2022-11-09T00:54:44.652Z,2.80
2022-11-09T00:57:12.649Z,2.77
2022-11-09T00:59:39.071Z,2.69
2022-11-09T01:02:05.481Z,2.69
2022-11-09T01:04:31.901Z,2.67
2022-11-09T01:06:58.321Z,2.55
2022-11-09T01:09:24.812Z,2.66
2022-11-09T01:11:51.253Z,2.76
2022-11-09T01:14:17.688Z,2.74
2022-11-09T01:16:44.160Z,2.47
2022-11-09T01:19:11.836Z,2.46
2022-11-09T01:21:38.302Z,2.60
2022-11-09T01:24:05.674Z,2.51
2022-11-09T01:26:37.519Z,2.52
2022-11-09T01:29:03.918Z,2.44
2022-11-09T01:31:30.457Z,2.38
2022-11-09T01:33:56.923Z,2.44
2022-11-09T01:36:24.583Z,2.36
2022-11-09T01:38:51.651Z,2.58
2022-11-09T01:41:22.357Z,2.71
2022-11-09T01:44:10.688Z,2.78
2022-11-09T01:46:54.697Z,2.89
2022-11-09T01:49:37.292Z,3.30
2022-11-09T01:52:13.389Z,2.92
2022-11-09T01:54:44.561Z,2.90
2022-11-09T01:57:16.076Z,3.16
2022-11-09T01:59:50.159Z,3.14
2022-11-09T02:02:16.973Z,3.02
2022-11-09T02:04:52.154Z,3.04
2022-11-09T02:07:19.726Z,3.02
2022-11-09T02:10:04.090Z,2.92
2022-11-09T02:12:34.401Z,2.80
2022-11-09T02:15:03.833Z,2.81
2022-11-09T02:17:30.462Z,2.69
2022-11-09T02:20:00.612Z,2.65
2022-11-09T02:22:27.023Z,2.56
2022-11-09T02:24:56.271Z,2.22
2022-11-09T02:27:23.904Z,2.52
2022-11-09T02:29:50.394Z,2.85
2022-11-09T02:32:24.059Z,2.82
2022-11-09T02:34:50.456Z,2.49
2022-11-09T02:37:42.081Z,2.67
2022-11-09T02:40:14.741Z,2.55
2022-11-09T02:42:41.241Z,2.40
2022-11-09T02:45:08.279Z,2.58
2022-11-09T02:47:34.683Z,2.61
2022-11-09T02:50:01.102Z,2.54
2022-11-09T02:52:27.622Z,2.62
2022-11-09T02:54:54.540Z,2.53
2022-11-09T02:57:21.101Z,2.65
2022-11-09T02:59:47.513Z,2.52
2022-11-09T03:02:14.015Z,2.55
2022-11-09T03:04:40.454Z,2.52
2022-11-09T03:07:08.120Z,2.51
2022-11-09T03:09:34.643Z,2.59
2022-11-09T03:12:21.035Z,2.48
2022-11-09T03:14:47.447Z,2.35
2022-11-09T03:17:14.146Z,2.54
2022-11-09T03:19:40.554Z,2.55
2022-11-09T03:22:06.993Z,2.54
2022-11-09T03:24:33.437Z,2.49
2022-11-09T03:26:59.839Z,2.52
2022-11-09T03:29:27.329Z,2.50
2022-11-09T03:31:53.737Z,2.52
2022-11-09T03:34:20.136Z,2.53
2022-11-09T03:36:46.563Z,2.51
2022-11-09T03:39:12.956Z,2.58
2022-11-09T03:41:39.358Z,2.43
2022-11-09T03:44:05.956Z,2.49
2022-11-09T03:46:32.444Z,2.49
2022-11-09T03:48:58.969Z,2.46
2022-11-09T03:51:25.388Z,2.47
2022-11-09T03:53:51.838Z,2.71
2022-11-09T03:56:18.339Z,2.50
2022-11-09T03:58:44.784Z,2.43
2022-11-09T04:01:11.358Z,2.54
2022-11-09T04:03:44.795Z,2.59
2022-11-09T04:06:11.249Z,2.51
2022-11-09T04:08:37.687Z,2.32
2022-11-09T04:11:04.082Z,2.53
2022-11-09T04:13:30.515Z,2.46
2022-11-09T04:15:56.887Z,2.37
2022-11-09T04:18:23.297Z,2.39
2022-11-09T04:20:49.705Z,2.73
2022-11-09T04:23:16.368Z,2.62
2022-11-09T04:25:43.255Z,2.72
2022-11-09T04:28:12.136Z,3.10
2022-11-09T04:30:38.922Z,3.14
2022-11-09T04:33:05.743Z,3.26
2022-11-09T04:35:33.458Z,3.02
2022-11-09T04:38:06.693Z,3.08
2022-11-09T04:40:34.879Z,3.09
2022-11-09T04:43:03.053Z,3.15
2022-11-09T04:45:29.767Z,3.29
2022-11-09T04:48:01.359Z,3.20
2022-11-09T04:50:28.840Z,3.01
2022-11-09T04:52:56.007Z,3.20
2022-11-09T04:55:22.409Z,3.10
2022-11-09T04:57:48.832Z,3.04
2022-11-09T05:00:15.630Z,3.14
2022-11-09T05:02:44.095Z,3.11
2022-11-09T05:05:10.484Z,3.28
2022-11-09T05:07:37.545Z,3.33
2022-11-09T05:10:04.129Z,3.39
2022-11-09T05:12:30.621Z,3.32
2022-11-09T05:14:57.063Z,3.26
2022-11-09T05:17:23.486Z,3.54
2022-11-09T05:19:57.128Z,3.35
2022-11-09T05:22:42.049Z,3.46
2022-11-09T05:25:08.840Z,3.48
2022-11-09T05:27:35.980Z,3.69
2022-11-09T05:30:02.454Z,3.63
2022-11-09T05:32:28.848Z,3.50
2022-11-09T05:34:55.279Z,3.54
2022-11-09T05:37:22.272Z,3.65
2022-11-09T05:39:48.877Z,3.61
2022-11-09T05:42:15.274Z,3.84
2022-11-09T05:44:41.691Z,3.79
2022-11-09T05:47:08.113Z,3.98
2022-11-09T05:49:34.593Z,3.77
2022-11-09T05:52:01.011Z,4.18
2022-11-09T05:54:27.430Z,3.97
2022-11-09T05:56:53.903Z,3.90
2022-11-09T05:59:20.314Z,3.92
2022-11-09T06:01:46.732Z,4.09
2022-11-09T06:04:16.419Z,4.02
2022-11-09T06:06:43.697Z,3.93
2022-11-09T06:09:10.192Z,4.11
2022-11-09T06:11:36.642Z,3.82
2022-11-09T06:14:03.273Z,3.85
2022-11-09T06:16:29.826Z,4.14
2022-11-09T06:18:56.319Z,3.92
2022-11-09T06:21:23.382Z,4.13
2022-11-09T06:23:49.830Z,3.94
2022-11-09T06:26:16.293Z,3.88
2022-11-09T06:28:42.837Z,3.88
2022-11-09T06:31:13.059Z,3.92
2022-11-09T06:33:39.518Z,4.23
2022-11-09T06:36:06.297Z,4.09
2022-11-09T06:38:32.913Z,4.31
2022-11-09T06:41:00.288Z,3.95
2022-11-09T06:43:27.458Z,4.34
2022-11-09T06:45:54.375Z,4.00
2022-11-09T06:48:21.278Z,4.02
2022-11-09T06:50:47.759Z,4.14
2022-11-09T06:53:16.500Z,4.55
2022-11-09T06:55:47.425Z,4.64
2022-11-09T06:58:17.037Z,4.47
2022-11-09T07:00:44.110Z,4.24
2022-11-09T07:03:15.003Z,4.35
2022-11-09T07:05:41.748Z,4.71
2022-11-09T07:08:08.183Z,4.40
2022-11-09T07:10:34.624Z,4.44
2022-11-09T07:13:03.174Z,4.70
2022-11-09T07:15:29.890Z,4.81
2022-11-09T07:17:58.051Z,4.63
2022-11-09T07:20:24.887Z,4.66
2022-11-09T07:22:51.888Z,4.87
2022-11-09T07:25:19.558Z,4.97
2022-11-09T07:27:46.366Z,4.73
2022-11-09T07:30:13.439Z,4.99
2022-11-09T07:33:07.987Z,5.50
2022-11-09T07:35:27.501Z,5.12
2022-11-09T07:37:54.014Z,5.21
2022-11-09T07:40:20.547Z,5.61
2022-11-09T07:42:46.987Z,5.61
2022-11-09T07:45:13.472Z,5.61
2022-11-09T07:47:39.902Z,5.73
2022-11-09T07:50:06.671Z,5.95
2022-11-09T07:52:33.124Z,5.94
2022-11-09T07:54:59.535Z,6.21
2022-11-09T07:57:25.951Z,6.52
2022-11-09T07:59:53.555Z,6.40
2022-11-09T08:02:20.026Z,6.65
2022-11-09T08:04:46.490Z,6.95
2022-11-09T08:07:12.933Z,7.10
2022-11-09T08:09:39.461Z,7.46
2022-11-09T08:12:06.100Z,7.53
2022-11-09T08:14:33.011Z,7.89
2022-11-09T08:16:59.474Z,7.98
2022-11-09T08:19:25.898Z,7.97
2022-11-09T08:21:57.206Z,8.27
2022-11-09T08:24:24.005Z,8.61
2022-11-09T08:26:50.465Z,8.20
2022-11-09T08:29:16.964Z,8.71
2022-11-09T08:31:43.398Z,8.99
2022-11-09T08:34:14.303Z,8.88
2022-11-09T08:36:41.063Z,9.12
2022-11-09T08:39:07.598Z,9.28
2022-11-09T08:41:35.239Z,9.48
2022-11-09T08:44:01.822Z,9.47
2022-11-09T08:46:28.294Z,9.72
2022-11-09T08:48:54.720Z,9.70
2022-11-09T08:51:21.150Z,9.81
2022-11-09T08:53:48.651Z,9.94
2022-11-09T08:56:18.394Z,10.23
2022-11-09T08:58:45.607Z,10.26
2022-11-09T09:01:17.048Z,10.42
2022-11-09T09:03:43.929Z,10.45
2022-11-09T09:06:10.357Z,10.51
2022-11-09T09:08:36.771Z,10.70
2022-11-09T09:11:06.709Z,10.94
2022-11-09T09:13:33.526Z,11.19
2022-11-09T09:16:12.687Z,11.12
2022-11-09T09:18:39.102Z,11.10
2022-11-09T09:21:07.622Z,11.38
2022-11-09T09:23:34.170Z,11.59
2022-11-09T09:26:00.686Z,11.64
2022-11-09T09:28:27.254Z,11.68
2022-11-09T09:30:54.139Z,11.81
2022-11-09T09:33:21.910Z,12.06
2022-11-09T09:35:51.967Z,11.97
2022-11-09T09:38:29.963Z,12.43
2022-11-09T09:41:02.974Z,12.37
2022-11-09T09:43:47.678Z,12.61
2022-11-09T09:46:19.600Z,12.41
2022-11-09T09:48:53.395Z,12.47
2022-11-09T09:51:35.022Z,12.48
2022-11-09T09:54:16.887Z,12.64
2022-11-09T09:56:47.143Z,12.68
2022-11-09T09:59:18.650Z,12.78
2022-11-09T10:01:45.799Z,12.75
2022-11-09T10:04:28.741Z,12.75
2022-11-09T10:07:24.561Z,12.92
2022-11-09T10:10:20.307Z,13.06
2022-11-09T10:13:16.588Z,13.17
2022-11-09T10:15:59.399Z,13.30
2022-11-09T10:18:47.761Z,13.27
2022-11-09T10:21:34.581Z,13.31
2022-11-09T10:24:58.641Z,13.49
2022-11-09T10:27:36.299Z,13.50
2022-11-09T10:30:14.969Z,13.80
2022-11-09T10:32:45.577Z,13.54
2022-11-09T10:35:24.862Z,13.70
2022-11-09T10:37:52.452Z,13.86
2022-11-09T10:40:27.961Z,14.00
2022-11-09T10:42:59.367Z,14.00
2022-11-09T10:45:29.532Z,14.23
2022-11-09T10:47:56.054Z,14.04
2022-11-09T10:50:46.784Z,14.26
2022-11-09T10:53:25.460Z,14.34
2022-11-09T10:55:57.767Z,14.42
2022-11-09T10:58:37.592Z,14.70
2022-11-09T11:01:16.283Z,14.75
2022-11-09T11:03:50.174Z,14.58
2022-11-09T11:06:28.524Z,14.60
2022-11-09T11:08:58.025Z,14.78
2022-11-09T11:11:34.994Z,14.72
2022-11-09T11:14:11.701Z,14.67
2022-11-09T11:16:39.640Z,14.67
2022-11-09T11:19:08.690Z,14.79
2022-11-09T11:21:35.153Z,14.70
2022-11-09T11:24:18.052Z,14.91
2022-11-09T11:26:50.496Z,14.96
2022-11-09T11:30:00.563Z,14.87
2022-11-09T11:32:27.207Z,14.87
2022-11-09T11:35:00.364Z,14.88
2022-11-09T11:37:37.856Z,14.95
2022-11-09T11:40:15.938Z,14.98
2022-11-09T11:43:07.542Z,15.15
2022-11-09T11:45:42.104Z,15.07
2022-11-09T11:48:47.081Z,14.88
2022-11-09T11:51:23.259Z,15.09
2022-11-09T11:54:25.276Z,15.06
2022-11-09T11:57:33.193Z,14.96
2022-11-09T12:00:18.089Z,15.01
2022-11-09T12:02:48.781Z,15.07
2022-11-09T12:05:43.404Z,15.07
2022-11-09T12:08:16.041Z,15.10
2022-11-09T12:10:56.080Z,15.13
2022-11-09T12:13:31.574Z,15.09
2022-11-09T12:16:10.808Z,14.98
2022-11-09T12:18:43.055Z,14.96
2022-11-09T12:21:41.374Z,14.96
2022-11-09T12:24:26.465Z,15.06
2022-11-09T12:27:31.521Z,15.14
2022-11-09T12:30:12.760Z,15.12
2022-11-09T12:32:51.409Z,15.50
2022-11-09T12:35:27.071Z,15.50
2022-11-09T12:38:10.289Z,15.49
2022-11-09T12:40:48.726Z,15.28
2022-11-09T12:43:31.804Z,15.23
2022-11-09T12:46:00.526Z,15.42
2022-11-09T12:48:30.831Z,15.32
2022-11-09T12:51:02.944Z,15.41
2022-11-09T12:53:36.547Z,15.46
2022-11-09T12:56:10.516Z,15.61
2022-11-09T12:58:39.008Z,15.79
2022-11-09T13:01:10.699Z,15.63
2022-11-09T13:03:40.499Z,15.51
2022-11-09T13:06:16.613Z,15.47
2022-11-09T13:08:55.804Z,15.58
2022-11-09T13:11:37.791Z,15.85
2022-11-09T13:14:22.239Z,15.76
2022-11-09T13:16:55.868Z,15.78
2022-11-09T13:19:34.450Z,15.54
2022-11-09T13:22:02.246Z,15.46
2022-11-09T13:24:31.766Z,15.59
2022-11-09T13:27:03.422Z,15.59
2022-11-09T13:29:55.303Z,15.42
2022-11-09T13:32:26.645Z,15.45
2022-11-09T13:35:03.528Z,15.42
2022-11-09T13:37:42.150Z,15.25
2022-11-09T13:40:31.734Z,15.19
2022-11-09T13:43:25.530Z,15.22
2022-11-09T13:45:58.502Z,15.09
2022-11-09T13:48:34.689Z,15.27
2022-11-09T13:51:05.853Z,15.16
2022-11-09T13:53:38.667Z,15.17
2022-11-09T13:56:27.456Z,14.90
2022-11-09T13:59:00.590Z,14.92
2022-11-09T14:01:52.840Z,14.94
2022-11-09T14:04:36.356Z,14.69
2022-11-09T14:07:05.014Z,14.54
2022-11-09T14:10:07.019Z,14.55
2022-11-09T14:12:51.904Z,14.57
2022-11-09T14:15:30.763Z,14.61
2022-11-09T14:18:34.823Z,14.67
2022-11-09T14:21:15.173Z,14.56
2022-11-09T14:23:41.913Z,14.47
2022-11-09T14:26:10.306Z,14.47
2022-11-09T14:28:37.310Z,14.34
2022-11-09T14:31:03.741Z,14.29
2022-11-09T14:33:34.769Z,14.41
2022-11-09T14:36:04.243Z,14.52
2022-11-09T14:38:36.341Z,14.50
2022-11-09T14:41:03.781Z,14.46
2022-11-09T14:43:38.687Z,14.29
2022-11-09T14:46:14.333Z,14.20
2022-11-09T14:48:49.697Z,14.14
2022-11-09T14:51:17.692Z,14.06
2022-11-09T14:53:44.596Z,14.02
2022-11-09T14:56:15.175Z,13.96
2022-11-09T14:58:44.115Z,13.86
2022-11-09T15:01:20.087Z,14.01
2022-11-09T15:04:06.808Z,13.77
2022-11-09T15:06:34.264Z,13.56
2022-11-09T15:09:08.150Z,13.61
2022-11-09T15:11:37.199Z,13.40
2022-11-09T15:14:26.470Z,13.58
2022-11-09T15:17:05.108Z,13.19
2022-11-09T15:19:48.251Z,13.37
2022-11-09T15:22:42.539Z,13.24
2022-11-09T15:25:23.453Z,13.13
2022-11-09T15:28:09.550Z,12.96
2022-11-09T15:31:07.011Z,12.87
2022-11-09T15:33:45.563Z,12.91
2022-11-09T15:36:35.054Z,12.79
2022-11-09T15:39:19.640Z,12.69
2022-11-09T15:41:46.141Z,12.62
2022-11-09T15:44:14.313Z,12.56
2022-11-09T15:46:49.995Z,12.42
2022-11-09T15:49:28.030Z,12.09
2022-11-09T15:51:55.208Z,12.21
2022-11-09T15:54:23.279Z,11.98
2022-11-09T15:56:51.102Z,11.86
2022-11-09T15:59:23.479Z,12.13
2022-11-09T16:01:50.003Z,12.22
2022-11-09T16:04:16.476Z,11.92
2022-11-09T16:06:46.559Z,11.56
2022-11-09T16:09:13.279Z,11.59
2022-11-09T16:11:39.715Z,11.55
2022-11-09T16:14:06.175Z,11.52
2022-11-09T16:16:32.642Z,11.72
2022-11-09T16:18:59.575Z,11.56
2022-11-09T16:21:26.096Z,11.42
2022-11-09T16:23:58.110Z,11.39
2022-11-09T16:26:25.084Z,11.64
2022-11-09T16:28:51.482Z,11.58
2022-11-09T16:31:25.255Z,11.49
2022-11-09T16:34:01.573Z,11.40
2022-11-09T16:36:28.700Z,11.26
2022-11-09T16:38:56.606Z,11.26
2022-11-09T16:41:24.306Z,11.22
2022-11-09T16:43:55.095Z,11.16
2022-11-09T16:46:25.161Z,11.21
2022-11-09T16:48:53.085Z,11.15
2022-11-09T16:51:19.722Z,10.98
2022-11-09T16:53:46.158Z,11.04
2022-11-09T16:56:13.474Z,11.40
2022-11-09T16:58:41.962Z,10.84
2022-11-09T17:01:12.442Z,10.90
2022-11-09T17:03:39.855Z,10.84
2022-11-09T17:06:10.966Z,10.90
2022-11-09T17:08:39.235Z,10.83
2022-11-09T17:11:14.947Z,11.02
2022-11-09T17:13:41.525Z,10.74
2022-11-09T17:16:11.038Z,10.86
2022-11-09T17:18:40.560Z,10.71
2022-11-09T17:21:12.037Z,10.66
2022-11-09T17:23:39.166Z,10.69
2022-11-09T17:26:07.171Z,10.65
2022-11-09T17:28:35.221Z,10.43
2022-11-09T17:31:15.370Z,10.62
2022-11-09T17:33:42.250Z,10.53
2022-11-09T17:36:13.933Z,10.58
2022-11-09T17:38:40.683Z,10.22
2022-11-09T17:41:14.489Z,10.55
2022-11-09T17:43:42.759Z,10.28
2022-11-09T17:46:16.193Z,10.49
2022-11-09T17:48:46.759Z,10.53
2022-11-09T17:51:15.115Z,10.44
2022-11-09T17:53:41.998Z,10.63
2022-11-09T17:56:09.955Z,10.62
2022-11-09T17:58:41.443Z,10.37
2022-11-09T18:01:14.068Z,10.45
2022-11-09T18:03:47.881Z,10.32
2022-11-09T18:06:20.388Z,10.15
2022-11-09T18:08:59.231Z,10.20
2022-11-09T18:11:34.109Z,10.08
2022-11-09T18:14:01.028Z,10.32
2022-11-09T18:16:28.202Z,10.37
2022-11-09T18:19:02.100Z,10.42
2022-11-09T18:21:28.661Z,10.37
2022-11-09T18:23:55.504Z,10.19
2022-11-09T18:26:21.992Z,10.27
2022-11-09T18:28:48.506Z,10.39
2022-11-09T18:31:15.010Z,10.22
2022-11-09T18:33:42.791Z,10.49
2022-11-09T18:36:15.600Z,10.53
2022-11-09T18:38:43.720Z,10.51
2022-11-09T18:41:14.129Z,10.39
2022-11-09T18:43:41.820Z,10.65
2022-11-09T18:46:10.904Z,10.55
2022-11-09T18:48:37.674Z,10.40
2022-11-09T18:51:05.843Z,10.58
2022-11-09T18:53:38.294Z,10.09
2022-11-09T18:56:08.296Z,10.43
2022-11-09T18:58:35.097Z,10.53
2022-11-09T19:01:06.718Z,10.47
2022-11-09T19:03:34.081Z,10.20
2022-11-09T19:06:06.229Z,10.18
2022-11-09T19:08:51.330Z,10.11
2022-11-09T19:11:18.058Z,10.10
2022-11-09T19:13:44.512Z,10.18
2022-11-09T19:16:13.103Z,10.34
2022-11-09T19:18:40.045Z,10.27
2022-11-09T19:21:17.927Z,10.54
2022-11-09T19:23:44.342Z,10.54
2022-11-09T19:26:17.469Z,10.46
2022-11-09T19:28:43.944Z,10.71
2022-11-09T19:31:15.554Z,10.49
2022-11-09T19:33:42.123Z,9.85
2022-11-09T19:36:29.176Z,10.05
2022-11-09T19:38:56.299Z,10.00
2022-11-09T19:41:25.213Z,10.31
2022-11-09T19:43:54.406Z,10.14
2022-11-09T19:46:21.007Z,10.14
2022-11-09T19:48:47.714Z,10.36
2022-11-09T19:51:16.564Z,10.26
2022-11-09T19:53:49.566Z,10.24
2022-11-09T19:56:16.075Z,10.29
2022-11-09T19:58:42.736Z,10.11
2022-11-09T20:01:13.337Z,10.01
2022-11-09T20:03:39.840Z,10.06
2022-11-09T20:06:07.034Z,10.15
2022-11-09T20:08:36.761Z,10.11
2022-11-09T20:11:34.814Z,10.04
2022-11-09T20:14:01.435Z,10.05
2022-11-09T20:16:28.005Z,9.97
2022-11-09T20:18:55.770Z,10.14
2022-11-09T20:21:22.168Z,10.00
2022-11-09T20:23:53.537Z,9.99
2022-11-09T20:26:20.026Z,9.85
2022-11-09T20:28:46.482Z,9.81
2022-11-09T20:31:15.882Z,10.15
2022-11-09T20:33:42.819Z,10.20
2022-11-09T20:36:14.790Z,9.97
2022-11-09T20:38:41.697Z,9.95
2022-11-09T20:41:10.943Z,9.98
2022-11-09T20:43:37.965Z,9.92
2022-11-09T20:46:16.007Z,10.00
2022-11-09T20:48:58.911Z,9.64
2022-11-09T20:51:26.005Z,9.95
2022-11-09T20:53:52.507Z,9.98
2022-11-09T20:56:20.234Z,9.93
2022-11-09T20:58:47.159Z,9.94
2022-11-09T21:01:26.800Z,9.87
2022-11-09T21:04:01.837Z,10.07
2022-11-09T21:06:31.286Z,9.89
2022-11-09T21:09:00.306Z,10.19
2022-11-09T21:11:35.831Z,10.21
2022-11-09T21:14:03.318Z,10.38
2022-11-09T21:16:29.739Z,10.13
2022-11-09T21:18:57.230Z,9.93
2022-11-09T21:21:25.182Z,10.04
2022-11-09T21:24:10.406Z,10.12
2022-11-09T21:26:55.140Z,10.03
2022-11-09T21:29:42.437Z,10.16
2022-11-09T21:32:11.020Z,9.90
2022-11-09T21:34:37.739Z,9.87
2022-11-09T21:37:04.910Z,9.90
2022-11-09T21:39:32.105Z,10.01
2022-11-09T21:41:58.691Z,10.01
2022-11-09T21:44:27.249Z,10.17
2022-11-09T21:46:53.675Z,9.97
2022-11-09T21:49:20.207Z,9.88
2022-11-09T21:51:47.346Z,9.83
2022-11-09T21:54:13.827Z,9.97
2022-11-09T21:56:40.470Z,9.95
2022-11-09T21:59:07.077Z,9.81
2022-11-09T22:01:33.745Z,9.82
2022-11-09T22:04:00.464Z,9.93
2022-11-09T22:06:27.339Z,9.80
2022-11-09T22:08:53.960Z,9.85
2022-11-09T22:11:41.592Z,9.75
2022-11-09T22:14:37.594Z,9.90
2022-11-09T22:17:06.004Z,9.77
2022-11-09T22:19:52.203Z,9.83
2022-11-09T22:22:19.001Z,9.85
2022-11-09T22:24:46.285Z,9.75
2022-11-09T22:27:12.696Z,9.77
2022-11-09T22:29:39.287Z,9.89
2022-11-09T22:32:06.444Z,9.89
2022-11-09T22:34:33.254Z,9.90
2022-11-09T22:36:59.663Z,9.67
2022-11-09T22:39:26.142Z,9.60
2022-11-09T22:41:52.650Z,9.63
2022-11-09T22:44:19.238Z,9.69
2022-11-09T22:46:45.716Z,9.78
2022-11-09T22:49:12.399Z,9.68
2022-11-09T22:51:38.833Z,9.68
2022-11-09T22:54:05.530Z,9.58
2022-11-09T22:56:31.952Z,9.66
2022-11-09T22:58:58.366Z,9.62
2022-11-09T23:01:25.001Z,9.79
2022-11-09T23:03:53.748Z,9.68
2022-11-09T23:06:22.359Z,9.72
2022-11-09T23:08:49.512Z,9.75
2022-11-09T23:11:19.156Z,9.58
2022-11-09T23:13:51.915Z,9.64
2022-11-09T23:16:21.576Z,9.70
2022-11-09T23:18:54.202Z,9.56
2022-11-09T23:21:28.206Z,9.74
2022-11-09T23:23:57.571Z,9.82
2022-11-09T23:26:24.714Z,9.83
2022-11-09T23:28:51.350Z,9.76
2022-11-09T23:31:23.510Z,9.83
2022-11-09T23:33:51.894Z,9.69
2022-11-09T23:36:19.459Z,9.76
2022-11-09T23:38:46.699Z,9.75
2022-11-09T23:41:14.708Z,9.80
2022-11-09T23:43:46.191Z,9.82
2022-11-09T23:46:15.328Z,9.73
2022-11-09T23:48:41.872Z,9.80
2022-11-09T23:51:09.105Z,9.76
2022-11-09T23:53:36.466Z,9.82
2022-11-09T23:56:05.979Z,9.90
2022-11-09T23:58:32.781Z,9.73
